Terminal Aerodrome Forecast
Issued by NWS Flagstaff, AZ

Home | Current Version | Previous Version | Text Only | Print | Product List | Glossary On
Versions: 1 2 3 4 5 6 7 8 9 10 11 12 13 14 15 16 17 18 19 20 21 22 23 24
000
FTUS45 KFGZ 201100 RRA
TAFFLG
TAF
KFLG 201144Z 2012/2112 VRB03KT P6SM FEW015 SCT110
      TEMPO 2012/2015 1SM BR FEW003 BKN013
     FM201900 22008KT P6SM VCTS BKN060CB
      TEMPO 2020/2024 VRB15G25KT 3SM TSRA BKN030CB
     FM210300 VRB03KT P6SM SCT070=

USA.gov is the U.S. government's official web portal to all federal, state and local government web resources and services.